Time;durP1;ratioP1;P1;durP2;ratioP2;P2;SDS_P1;SDS_P2;PMS_P1;PMS_P2;Temp;Humidity;BMP_temperature;BMP_pressure;BME280_temperature;BME280_humidity;BME280_pressure;Samples;Min_cycle;Max_cycle;Signal;HPM_P1;HPM_P2
2023/04/04 00:01:59;;;;;;;8.80;8.60;;;18.60;47.30;;;;;;5052880;28;20496;-49
2023/04/04 00:04:27;;;;;;;9.03;8.83;;;18.60;47.40;;;;;;5052835;28;20506;-50
2023/04/04 00:06:54;;;;;;;8.73;8.53;;;18.60;47.40;;;;;;5052670;28;20444;-51
2023/04/04 00:09:22;;;;;;;9.10;8.80;;;18.50;47.30;;;;;;5052579;28;20552;-49
2023/04/04 00:11:49;;;;;;;8.70;8.50;;;18.50;47.40;;;;;;5052781;28;20551;-50
2023/04/04 00:14:16;;;;;;;9.07;8.77;;;18.50;47.40;;;;;;5052624;28;20479;-49
2023/04/04 00:16:43;;;;;;;8.73;8.53;;;18.50;47.40;;;;;;5052901;28;20444;-51
2023/04/04 00:19:16;;;;;;;9.20;8.93;;;18.50;47.40;;;;;;5052720;28;20567;-52
2023/04/04 00:21:43;;;;;;;9.60;9.30;;;18.50;47.40;;;;;;5052407;28;20496;-49
2023/04/04 00:24:11;;;;;;;8.93;8.73;;;18.50;47.40;;;;;;5052422;28;20476;-49
2023/04/04 00:26:39;;;;;;;8.90;8.70;;;18.50;47.30;;;;;;5053126;28;20443;-49
2023/04/04 00:29:06;;;;;;;8.97;8.47;;;18.50;47.30;;;;;;5052823;28;20468;-50
2023/04/04 00:31:33;;;;;;;8.43;8.23;;;18.40;47.30;;;;;;5052420;28;20483;-51
2023/04/04 00:34:00;;;;;;;9.43;9.23;;;18.40;47.40;;;;;;5053184;28;20527;-50
2023/04/04 00:36:27;;;;;;;8.90;8.70;;;18.40;47.40;;;;;;5053421;28;20484;-51
2023/04/04 00:38:54;;;;;;;8.90;8.60;;;18.40;47.40;;;;;;5052533;28;20540;-53
2023/04/04 00:41:21;;;;;;;8.97;8.77;;;18.40;47.40;;;;;;5057462;28;20465;-55
2023/04/04 00:43:49;;;;;;;8.23;8.00;;;18.40;47.40;;;;;;5064690;28;20447;-53
2023/04/04 00:46:17;;;;;;;10.07;9.87;;;18.40;47.40;;;;;;5063735;28;20455;-54
2023/04/04 00:48:44;;;;;;;11.73;11.20;;;18.40;47.40;;;;;;5063631;28;20441;-52
2023/04/04 00:51:11;;;;;;;10.00;9.67;;;18.40;47.40;;;;;;5063574;28;20484;-54
2023/04/04 00:53:38;;;;;;;9.20;8.90;;;18.40;47.40;;;;;;5058654;28;20476;-53
2023/04/04 00:56:06;;;;;;;9.10;8.80;;;18.40;47.40;;;;;;5052923;28;20476;-54
2023/04/04 00:58:33;;;;;;;9.43;9.13;;;18.30;47.40;;;;;;5052725;28;21022;-48
2023/04/04 01:01:01;;;;;;;9.20;8.90;;;18.30;47.40;;;;;;5052716;28;20519;-48
2023/04/04 01:03:29;;;;;;;9.17;8.97;;;18.30;47.40;;;;;;5052733;28;20478;-48
2023/04/04 01:05:56;;;;;;;8.70;8.50;;;18.30;47.40;;;;;;5052322;28;20969;-49
2023/04/04 01:08:26;;;;;;;9.13;8.83;;;18.30;47.40;;;;;;5051736;28;20484;-50
2023/04/04 01:10:53;;;;;;;9.43;9.20;;;18.30;47.40;;;;;;5052707;28;20487;-49
2023/04/04 01:13:21;;;;;;;9.23;9.03;;;18.30;47.40;;;;;;5052713;28;20475;-50
2023/04/04 01:15:48;;;;;;;10.00;9.80;;;18.30;47.50;;;;;;5052374;28;20476;-49
2023/04/04 01:18:21;;;;;;;9.30;9.10;;;18.30;47.40;;;;;;5051697;28;20856;-51
2023/04/04 01:20:54;;;;;;;9.73;9.53;;;18.20;47.40;;;;;;5032428;28;20567;-48
2023/04/04 01:23:24;;;;;;;9.53;9.20;;;18.30;47.50;;;;;;5032547;28;20502;-49
2023/04/04 01:26:01;;;;;;;9.37;9.17;;;18.20;47.40;;;;;;5032512;28;20518;-49
2023/04/04 01:28:28;;;;;;;9.03;8.73;;;18.20;47.50;;;;;;5048220;28;20804;-48
2023/04/04 01:30:56;;;;;;;8.20;8.00;;;18.20;47.40;;;;;;5052291;28;20572;-49
2023/04/04 01:33:28;;;;;;;8.50;8.30;;;18.20;47.40;;;;;;5052333;28;20487;-48
2023/04/04 01:36:05;;;;;;;8.27;8.07;;;18.20;47.50;;;;;;5052171;28;20991;-48
2023/04/04 01:38:41;;;;;;;8.93;8.73;;;18.20;47.50;;;;;;5052290;28;20487;-49
2023/04/04 01:41:12;;;;;;;8.50;8.30;;;18.20;47.50;;;;;;5051991;28;20511;-49
2023/04/04 01:43:38;;;;;;;9.03;8.80;;;18.20;47.50;;;;;;5052405;28;20828;-51
2023/04/04 01:46:06;;;;;;;8.57;8.37;;;18.20;47.50;;;;;;5052052;28;20487;-51
2023/04/04 01:48:33;;;;;;;9.30;9.00;;;18.20;47.60;;;;;;5051938;28;20807;-49
2023/04/04 01:51:01;;;;;;;9.30;9.03;;;18.20;48.10;;;;;;5051919;28;20460;-50
2023/04/04 01:53:28;;;;;;;8.90;8.67;;;18.20;47.60;;;;;;5052433;28;20452;-51
2023/04/04 01:55:55;;;;;;;8.83;8.63;;;18.10;47.50;;;;;;5052252;28;20475;-50
2023/04/04 01:58:23;;;;;;;8.70;8.50;;;18.10;47.60;;;;;;5052100;28;20452;-48
2023/04/04 02:00:50;;;;;;;9.17;8.97;;;18.20;47.70;;;;;;5051712;28;20575;-49
2023/04/04 02:03:17;;;;;;;9.10;8.90;;;18.20;47.70;;;;;;5051737;28;20436;-50
2023/04/04 02:05:45;;;;;;;8.57;8.37;;;18.20;47.70;;;;;;5051341;28;20491;-51
2023/04/04 02:08:12;;;;;;;9.47;9.17;;;18.10;47.60;;;;;;5051434;28;20475;-50
2023/04/04 02:10:39;;;;;;;9.00;8.80;;;18.10;47.70;;;;;;5052184;28;20444;-51
2023/04/04 02:13:06;;;;;;;8.70;8.50;;;18.10;47.80;;;;;;5051778;28;20452;-49
2023/04/04 02:15:35;;;;;;;8.63;8.23;;;18.10;47.80;;;;;;5051961;28;20448;-48
2023/04/04 02:18:02;;;;;;;8.30;8.10;;;18.10;47.80;;;;;;5051394;28;20444;-49
2023/04/04 02:20:29;;;;;;;9.07;8.87;;;18.10;47.80;;;;;;5051506;28;20898;-50
2023/04/04 02:22:56;;;;;;;8.97;8.73;;;18.10;47.90;;;;;;5051960;28;20448;-51
2023/04/04 02:25:25;;;;;;;9.50;9.20;;;18.10;47.80;;;;;;5051469;28;20480;-51
2023/04/04 02:27:51;;;;;;;8.27;8.10;;;18.10;47.80;;;;;;5054259;28;20506;-51
2023/04/04 02:30:19;;;;;;;9.00;8.77;;;18.10;47.80;;;;;;5055167;28;20476;-50
2023/04/04 02:32:47;;;;;;;9.00;8.70;;;18.10;47.90;;;;;;5055221;28;20490;-49
2023/04/04 02:35:15;;;;;;;9.03;8.73;;;18.10;47.90;;;;;;5055072;28;20443;-50
2023/04/04 02:37:44;;;;;;;9.30;9.00;;;18.10;47.90;;;;;;5054928;28;21001;-48
2023/04/04 02:40:12;;;;;;;8.90;8.70;;;18.10;47.90;;;;;;5055094;28;20484;-49
2023/04/04 02:42:42;;;;;;;9.03;8.83;;;18.00;47.80;;;;;;5054769;28;20890;-48
2023/04/04 02:45:10;;;;;;;9.03;8.73;;;18.10;47.90;;;;;;5054656;28;20875;-50
2023/04/04 02:47:38;;;;;;;8.70;8.50;;;18.10;47.90;;;;;;5054847;28;21069;-49
2023/04/04 02:50:08;;;;;;;8.50;8.30;;;18.10;47.90;;;;;;5054990;28;20443;-51
2023/04/04 02:52:35;;;;;;;8.00;7.90;;;18.10;47.90;;;;;;5055410;28;20962;-49
2023/04/04 02:55:03;;;;;;;8.77;8.57;;;18.00;47.80;;;;;;5054846;28;20452;-49
2023/04/04 02:57:30;;;;;;;8.10;7.90;;;18.00;47.80;;;;;;5055057;28;20535;-50
2023/04/04 02:59:57;;;;;;;8.17;7.97;;;18.00;47.90;;;;;;5054567;28;20480;-52
2023/04/04 03:02:24;;;;;;;8.37;8.17;;;18.00;47.90;;;;;;5054780;28;20496;-50
2023/04/04 03:04:51;;;;;;;8.87;8.67;;;18.00;47.80;;;;;;5054313;28;20451;-49
2023/04/04 03:07:21;;;;;;;8.90;8.70;;;18.00;47.80;;;;;;5054497;28;20448;-48
2023/04/04 03:09:48;;;;;;;8.23;8.03;;;18.00;47.80;;;;;;5054813;28;20881;-49
2023/04/04 03:12:15;;;;;;;8.70;8.50;;;18.00;47.90;;;;;;5054554;28;20558;-48
2023/04/04 03:14:42;;;;;;;8.30;8.10;;;18.00;47.90;;;;;;5054283;28;20506;-50
2023/04/04 03:17:13;;;;;;;8.80;8.60;;;18.00;47.90;;;;;;5054459;28;20969;-50
2023/04/04 03:19:40;;;;;;;8.80;8.60;;;18.00;47.90;;;;;;5054202;28;20541;-50
2023/04/04 03:22:07;;;;;;;8.07;7.87;;;18.00;47.90;;;;;;5054318;28;20475;-53
2023/04/04 03:24:36;;;;;;;8.70;8.50;;;18.00;47.90;;;;;;5054132;28;20483;-50
2023/04/04 03:27:03;;;;;;;8.83;8.53;;;18.00;48.00;;;;;;5053976;28;20470;-50
2023/04/04 03:29:31;;;;;;;8.70;8.50;;;18.00;47.90;;;;;;5054141;28;20516;-51
2023/04/04 03:31:58;;;;;;;7.97;7.70;;;17.90;47.90;;;;;;5054192;28;20484;-50
2023/04/04 03:34:26;;;;;;;7.90;7.70;;;18.00;48.00;;;;;;5053895;28;20486;-51
2023/04/04 03:36:53;;;;;;;8.30;8.10;;;17.90;47.90;;;;;;5053900;28;20962;-51
2023/04/04 03:39:20;;;;;;;7.70;7.50;;;17.90;48.00;;;;;;5053638;28;20455;-50
2023/04/04 03:41:48;;;;;;;7.70;7.60;;;17.90;48.00;;;;;;5053795;28;20480;-51
2023/04/04 03:44:15;;;;;;;8.07;7.77;;;17.90;48.00;;;;;;5053966;28;20471;-50
2023/04/04 03:46:42;;;;;;;7.40;7.30;;;17.90;48.00;;;;;;5053996;28;20436;-51
2023/04/04 03:49:09;;;;;;;8.10;7.90;;;17.90;48.00;;;;;;5054112;28;20471;-52
2023/04/04 03:51:36;;;;;;;8.27;8.07;;;17.90;48.10;;;;;;5053910;28;20496;-51
2023/04/04 03:54:03;;;;;;;8.27;7.97;;;17.90;48.10;;;;;;5053873;28;20484;-52
2023/04/04 03:56:31;;;;;;;7.80;7.60;;;17.90;48.10;;;;;;5054184;28;20527;-50
2023/04/04 03:59:00;;;;;;;8.27;7.97;;;17.90;48.10;;;;;;5053740;28;20943;-50
2023/04/04 04:01:26;;;;;;;8.20;7.80;;;17.90;48.10;;;;;;5052748;28;20506;-50
2023/04/04 04:03:53;;;;;;;7.43;7.23;;;17.90;48.10;;;;;;5052721;28;20449;-52
2023/04/04 04:06:20;;;;;;;7.13;6.93;;;17.90;48.10;;;;;;5052728;28;20483;-50
2023/04/04 04:08:47;;;;;;;8.10;7.90;;;17.90;48.20;;;;;;5052540;28;20943;-51
2023/04/04 04:11:14;;;;;;;8.10;7.90;;;17.90;48.20;;;;;;5052428;28;20496;-50
2023/04/04 04:13:41;;;;;;;7.50;7.30;;;17.80;48.20;;;;;;5052631;28;20494;-53
2023/04/04 04:16:10;;;;;;;7.70;7.50;;;17.90;48.30;;;;;;5052585;28;20448;-51
2023/04/04 04:18:37;;;;;;;8.10;7.90;;;17.80;48.20;;;;;;5052198;28;20510;-50
2023/04/04 04:21:04;;;;;;;7.10;6.90;;;17.80;48.20;;;;;;5052097;28;20549;-51
2023/04/04 04:23:31;;;;;;;7.73;7.53;;;17.80;48.20;;;;;;5052364;28;20531;-51
2023/04/04 04:25:58;;;;;;;8.40;8.20;;;17.80;48.20;;;;;;5052308;28;20436;-51
2023/04/04 04:28:25;;;;;;;7.57;7.37;;;17.80;48.20;;;;;;5052086;28;20483;-50
2023/04/04 04:30:52;;;;;;;7.10;6.90;;;17.80;48.30;;;;;;5051708;28;20507;-51
2023/04/04 04:33:20;;;;;;;7.20;7.00;;;17.80;48.30;;;;;;5051906;28;20540;-52
2023/04/04 04:35:47;;;;;;;7.10;7.00;;;17.80;48.40;;;;;;5052145;28;20486;-51
2023/04/04 04:38:14;;;;;;;7.93;7.53;;;17.80;48.40;;;;;;5051888;28;20523;-51
2023/04/04 04:40:41;;;;;;;7.30;7.10;;;17.80;48.50;;;;;;5054425;28;20560;-60
2023/04/04 04:43:08;;;;;;;7.23;7.13;;;17.80;48.50;;;;;;5051723;28;20454;-54
2023/04/04 04:45:35;;;;;;;7.77;7.57;;;17.80;48.60;;;;;;5052079;28;20452;-51
2023/04/04 04:48:02;;;;;;;8.30;8.00;;;17.90;48.70;;;;;;5051810;28;20440;-53
2023/04/04 04:50:30;;;;;;;7.33;7.13;;;17.80;48.60;;;;;;5053621;28;20474;-59
2023/04/04 04:52:57;;;;;;;8.23;7.93;;;17.90;48.80;;;;;;5051604;28;20487;-52
2023/04/04 04:55:24;;;;;;;7.80;7.60;;;17.80;48.90;;;;;;5051601;28;20476;-53
2023/04/04 04:57:51;;;;;;;8.93;8.73;;;17.90;48.90;;;;;;5051551;28;20492;-53
2023/04/04 05:00:19;;;;;;;7.77;7.47;;;17.90;48.90;;;;;;5051559;28;20528;-58
2023/04/04 05:02:46;;;;;;;8.00;7.70;;;17.80;49.20;;;;;;5051424;28;20498;-58
2023/04/04 05:05:13;;;;;;;7.60;7.40;;;17.80;49.50;;;;;;5051892;28;20532;-59
2023/04/04 05:07:45;;;;;;;7.70;7.40;;;17.80;49.50;;;;;;5051661;28;20534;-57
2023/04/04 05:10:12;;;;;;;7.40;7.20;;;17.80;49.50;;;;;;5051735;28;20483;-57
2023/04/04 05:12:43;;;;;;;7.43;7.23;;;17.80;49.40;;;;;;5051262;28;20540;-57
2023/04/04 05:15:10;;;;;;;8.67;8.37;;;17.80;49.40;;;;;;5051683;28;20444;-58
2023/04/04 05:17:38;;;;;;;7.83;7.63;;;17.80;49.30;;;;;;5051272;28;20502;-57
2023/04/04 05:20:07;;;;;;;8.97;8.47;;;17.70;49.20;;;;;;5051552;28;20444;-58
2023/04/04 05:22:34;;;;;;;8.07;7.77;;;17.70;49.20;;;;;;5051282;28;20488;-57
2023/04/04 05:25:02;;;;;;;8.43;8.23;;;17.70;49.20;;;;;;5051529;28;20532;-58
2023/04/04 05:27:29;;;;;;;8.20;8.00;;;17.70;49.10;;;;;;5051241;28;20476;-58
2023/04/04 05:29:56;;;;;;;7.50;7.33;;;17.70;49.10;;;;;;5051431;28;20850;-60
2023/04/04 05:32:23;;;;;;;7.27;7.17;;;17.70;49.00;;;;;;5107131;22;20993;-59
2023/04/04 05:34:50;;;;;;;7.73;7.63;;;17.70;49.00;;;;;;5071293;28;21001;-58
2023/04/04 05:37:17;;;;;;;8.10;7.70;;;17.70;49.00;;;;;;5071196;28;20985;-55
2023/04/04 05:39:44;;;;;;;7.87;7.67;;;17.70;49.00;;;;;;5071288;28;20443;-60
2023/04/04 05:42:12;;;;;;;7.50;7.40;;;17.70;48.90;;;;;;5071137;28;20488;-57
2023/04/04 05:44:39;;;;;;;7.13;7.03;;;17.70;48.90;;;;;;5071230;28;20826;-57
2023/04/04 05:47:06;;;;;;;7.93;7.67;;;17.70;48.90;;;;;;5071136;28;20477;-57
2023/04/04 05:49:33;;;;;;;7.73;7.53;;;17.70;48.90;;;;;;5071217;28;20518;-59
2023/04/04 05:52:00;;;;;;;7.70;7.50;;;17.70;48.90;;;;;;5071155;28;20546;-58
2023/04/04 05:54:27;;;;;;;8.10;7.90;;;17.70;48.90;;;;;;5071322;28;20475;-59
2023/04/04 05:56:54;;;;;;;8.50;8.30;;;17.60;48.80;;;;;;5070987;28;20466;-59
2023/04/04 05:59:23;;;;;;;8.20;7.90;;;17.70;48.90;;;;;;5071076;28;20965;-57
2023/04/04 06:01:50;;;;;;;8.03;7.83;;;17.60;48.90;;;;;;5073921;28;20510;-56
2023/04/04 06:04:17;;;;;;;8.30;8.10;;;17.70;48.90;;;;;;5074913;28;20447;-58
2023/04/04 06:06:45;;;;;;;8.00;7.80;;;17.70;48.90;;;;;;5074673;28;20458;-58
2023/04/04 06:09:12;;;;;;;8.10;7.90;;;17.70;49.00;;;;;;5074839;28;20530;-57
2023/04/04 06:11:39;;;;;;;8.13;7.90;;;17.70;48.90;;;;;;5074695;28;20455;-57
2023/04/04 06:14:07;;;;;;;8.20;8.00;;;17.70;48.90;;;;;;5074791;28;20443;-56
2023/04/04 06:16:35;;;;;;;8.00;7.80;;;17.70;48.90;;;;;;5074506;28;20535;-58
2023/04/04 06:19:02;;;;;;;8.40;8.17;;;17.60;48.80;;;;;;5074704;28;20443;-57
2023/04/04 06:21:29;;;;;;;8.73;8.50;;;17.70;48.90;;;;;;5074474;28;21076;-59
2023/04/04 06:23:56;;;;;;;7.90;7.70;;;17.70;48.80;;;;;;5074538;28;20447;-59
2023/04/04 06:26:23;;;;;;;8.27;7.97;;;17.70;48.80;;;;;;5074567;28;20486;-57
2023/04/04 06:28:50;;;;;;;8.17;7.97;;;17.70;48.80;;;;;;5074359;28;20485;-57
2023/04/04 06:31:17;;;;;;;9.63;9.33;;;17.70;48.80;;;;;;5074291;28;20554;-60
2023/04/04 06:33:45;;;;;;;8.87;7.90;;;17.70;48.80;;;;;;5074433;28;20482;-60
2023/04/04 06:36:12;;;;;;;7.90;7.80;;;17.70;48.80;;;;;;5074396;28;20483;-57
2023/04/04 06:38:39;;;;;;;8.63;8.43;;;17.70;48.80;;;;;;5074134;28;20470;-57
2023/04/04 06:41:06;;;;;;;8.37;8.20;;;17.60;48.70;;;;;;5074216;28;20518;-59
2023/04/04 06:43:32;;;;;;;8.73;8.00;;;17.60;48.70;;;;;;5074175;28;20486;-58
2023/04/04 06:46:00;;;;;;;8.40;8.20;;;17.60;48.70;;;;;;5074111;28;20487;-58
2023/04/04 06:48:26;;;;;;;8.27;8.07;;;17.60;48.70;;;;;;5073937;28;20969;-58
2023/04/04 06:50:55;;;;;;;9.10;8.80;;;17.60;48.70;;;;;;5074080;28;20486;-56
2023/04/04 06:53:23;;;;;;;8.63;8.43;;;17.60;48.70;;;;;;5074150;28;20525;-59
2023/04/04 06:55:50;;;;;;;8.40;8.20;;;17.60;48.70;;;;;;5073959;28;20820;-57
2023/04/04 06:58:17;;;;;;;7.47;7.37;;;17.60;48.70;;;;;;5073871;28;20942;-59
2023/04/04 07:00:45;;;;;;;8.27;8.07;;;17.60;48.70;;;;;;5073783;28;20501;-58
2023/04/04 07:03:11;;;;;;;8.07;7.87;;;17.60;48.70;;;;;;5073831;28;20849;-60
2023/04/04 07:05:40;;;;;;;8.43;8.23;;;17.60;48.70;;;;;;5073823;28;20886;-58
2023/04/04 07:08:08;;;;;;;7.80;7.60;;;17.60;48.70;;;;;;5073695;28;20447;-58
2023/04/04 07:10:36;;;;;;;8.30;8.10;;;17.60;48.70;;;;;;5073763;28;20530;-60
2023/04/04 07:13:02;;;;;;;7.67;7.47;;;17.60;48.70;;;;;;5073042;28;20467;-59
2023/04/04 07:15:29;;;;;;;8.50;8.30;;;17.60;48.70;;;;;;5073720;28;20467;-60
2023/04/04 07:17:56;;;;;;;7.97;7.77;;;17.60;48.70;;;;;;5073469;28;20475;-59
2023/04/04 07:20:23;;;;;;;7.60;7.40;;;17.60;48.70;;;;;;5073547;28;20501;-59
2023/04/04 07:22:50;;;;;;;7.77;7.67;;;17.60;48.70;;;;;;5073366;28;20518;-56
2023/04/04 07:25:18;;;;;;;8.00;7.80;;;17.60;48.70;;;;;;5073472;28;20471;-58
2023/04/04 07:27:45;;;;;;;8.50;8.30;;;17.60;48.70;;;;;;5073145;28;20482;-60
2023/04/04 07:30:13;;;;;;;8.23;8.00;;;17.60;48.70;;;;;;5073405;28;20894;-60
2023/04/04 07:32:40;;;;;;;8.37;8.17;;;17.60;48.70;;;;;;5073221;28;20509;-58
2023/04/04 07:35:08;;;;;;;8.30;8.10;;;17.60;48.70;;;;;;5073237;28;20482;-58
2023/04/04 07:37:37;;;;;;;9.20;9.00;;;17.50;48.60;;;;;;5073290;28;20443;-58
2023/04/04 07:40:06;;;;;;;7.90;7.70;;;17.60;48.70;;;;;;5073210;28;20446;-59
2023/04/04 07:42:35;;;;;;;8.63;8.43;;;17.50;48.60;;;;;;5073130;28;20487;-57
2023/04/04 07:45:01;;;;;;;8.00;7.90;;;17.50;48.60;;;;;;5073047;28;20482;-56
2023/04/04 07:47:28;;;;;;;7.80;7.70;;;17.50;48.60;;;;;;5072832;28;20479;-57
2023/04/04 07:49:55;;;;;;;8.60;8.40;;;17.50;48.60;;;;;;5073061;28;20474;-59
2023/04/04 07:52:22;;;;;;;8.90;8.70;;;17.50;48.60;;;;;;5072941;28;20486;-57
2023/04/04 07:54:50;;;;;;;8.10;7.90;;;17.50;48.60;;;;;;5072744;28;20481;-58
2023/04/04 07:57:17;;;;;;;8.37;8.00;;;17.50;48.60;;;;;;5072690;28;20451;-59
2023/04/04 07:59:46;;;;;;;8.30;8.10;;;17.50;48.60;;;;;;5072761;28;20479;-59
2023/04/04 08:02:13;;;;;;;8.70;8.50;;;17.50;48.60;;;;;;5072604;28;20493;-60
2023/04/04 08:04:39;;;;;;;8.73;8.53;;;17.50;48.60;;;;;;5072691;28;20475;-57
2023/04/04 08:07:06;;;;;;;8.20;8.00;;;17.50;48.60;;;;;;5072384;28;20527;-60
2023/04/04 08:09:35;;;;;;;8.50;8.30;;;17.50;48.60;;;;;;5072525;28;20530;-58
2023/04/04 08:12:02;;;;;;;8.70;8.33;;;17.50;48.60;;;;;;5072315;28;20470;-59
2023/04/04 08:14:30;;;;;;;7.97;7.67;;;17.50;48.60;;;;;;5072527;28;20478;-56
2023/04/04 08:16:58;;;;;;;8.33;8.13;;;17.50;48.60;;;;;;5072300;28;20872;-59
2023/04/04 08:19:25;;;;;;;9.10;8.80;;;17.50;48.60;;;;;;5072294;28;20479;-58
2023/04/04 08:21:52;;;;;;;8.50;8.30;;;17.50;48.60;;;;;;5072216;28;20853;-57
2023/04/04 08:24:21;;;;;;;8.57;8.27;;;17.50;48.60;;;;;;5071289;28;20471;-57
2023/04/04 08:26:48;;;;;;;8.53;8.33;;;17.50;48.60;;;;;;5072103;28;20530;-57
2023/04/04 08:29:15;;;;;;;8.80;8.60;;;17.50;48.60;;;;;;5072105;28;20474;-57
2023/04/04 08:31:42;;;;;;;8.23;8.03;;;17.50;48.60;;;;;;5071827;28;20494;-61
2023/04/04 08:34:10;;;;;;;8.77;8.33;;;17.50;48.60;;;;;;5072136;28;20505;-60
2023/04/04 08:36:37;;;;;;;8.33;8.13;;;17.50;48.60;;;;;;5071926;28;20486;-59
2023/04/04 08:39:05;;;;;;;8.43;8.23;;;17.50;48.60;;;;;;5071928;28;20443;-57
2023/04/04 08:41:34;;;;;;;8.27;8.07;;;17.50;48.60;;;;;;5071839;28;20463;-57
2023/04/04 08:44:03;;;;;;;8.60;8.40;;;17.50;48.60;;;;;;5071998;28;20451;-59
2023/04/04 08:46:30;;;;;;;8.10;7.90;;;17.50;48.60;;;;;;5072003;28;20461;-58
2023/04/04 08:49:00;;;;;;;7.67;7.47;;;17.50;48.60;;;;;;5071807;28;20482;-57
2023/04/04 08:51:30;;;;;;;8.07;7.93;;;17.50;48.60;;;;;;5071743;28;20494;-55
2023/04/04 08:54:02;;;;;;;7.70;7.60;;;17.50;48.60;;;;;;5071756;28;20505;-58
2023/04/04 08:56:29;;;;;;;7.97;7.77;;;17.50;48.60;;;;;;5071756;28;20475;-58
2023/04/04 08:58:56;;;;;;;8.07;7.97;;;17.50;48.60;;;;;;5071539;28;20443;-57
2023/04/04 09:01:23;;;;;;;8.23;8.03;;;17.50;48.60;;;;;;5071633;28;20509;-58
2023/04/04 09:03:51;;;;;;;8.80;8.60;;;17.40;48.50;;;;;;5071715;28;20561;-57
2023/04/04 09:06:19;;;;;;;8.40;8.20;;;17.50;48.60;;;;;;5071756;28;20753;-56
2023/04/04 09:08:50;;;;;;;7.97;7.77;;;17.50;48.60;;;;;;5071325;28;20475;-60
2023/04/04 09:11:17;;;;;;;7.50;7.40;;;17.50;48.60;;;;;;5071563;28;20521;-61
2023/04/04 09:13:46;;;;;;;7.30;7.20;;;17.40;48.50;;;;;;5071515;28;20490;-58
2023/04/04 09:16:13;;;;;;;8.97;8.77;;;17.40;48.50;;;;;;5071672;28;20466;-60
2023/04/04 09:18:40;;;;;;;7.80;7.70;;;17.40;48.50;;;;;;5071282;28;20475;-58
2023/04/04 09:21:10;;;;;;;7.47;7.37;;;17.40;48.50;;;;;;5071396;28;21039;-58
2023/04/04 09:23:38;;;;;;;7.67;7.47;;;17.40;48.50;;;;;;5071489;28;20478;-57
2023/04/04 09:26:06;;;;;;;8.13;7.93;;;17.40;48.50;;;;;;5071520;28;20483;-57
2023/04/04 09:28:33;;;;;;;8.37;8.17;;;17.40;48.50;;;;;;5071194;28;20478;-56
2023/04/04 09:31:03;;;;;;;8.77;8.57;;;17.40;48.50;;;;;;5071148;28;20487;-56
2023/04/04 09:33:32;;;;;;;7.50;7.40;;;17.40;48.50;;;;;;5071548;28;20443;-59
2023/04/04 09:36:02;;;;;;;8.37;8.17;;;17.40;48.50;;;;;;5073025;28;20461;-60
2023/04/04 09:38:30;;;;;;;8.27;8.07;;;17.40;48.50;;;;;;5075327;28;20524;-58
2023/04/04 09:40:57;;;;;;;8.57;8.37;;;17.40;48.40;;;;;;5075325;28;20513;-59
2023/04/04 09:43:29;;;;;;;9.10;8.90;;;17.40;48.40;;;;;;5075246;28;20510;-61
2023/04/04 09:45:56;;;;;;;8.37;8.27;;;17.40;48.40;;;;;;5075517;28;20443;-58
2023/04/04 09:48:27;;;;;;;8.33;8.13;;;17.40;48.50;;;;;;5075127;28;20451;-59
2023/04/04 09:50:57;;;;;;;8.90;8.70;;;17.40;48.50;;;;;;5074490;28;20536;-63
2023/04/04 09:53:23;;;;;;;7.00;6.80;;;17.40;48.40;;;;;;5073123;28;20521;-59
2023/04/04 09:55:51;;;;;;;9.00;8.80;;;17.40;48.60;;;;;;5073971;28;20689;-60
2023/04/04 09:58:20;;;;;;;9.20;9.00;;;17.50;48.80;;;;;;5075001;28;20485;-58
2023/04/04 10:00:49;;;;;;;8.70;8.50;;;17.60;48.50;;;;;;5075127;28;20458;-58
2023/04/04 10:03:17;;;;;;;8.43;8.23;;;17.70;48.30;;;;;;5075053;28;20914;-58
2023/04/04 10:05:45;;;;;;;8.80;8.60;;;17.70;48.30;;;;;;5074698;28;20530;-58
2023/04/04 10:08:17;;;;;;;8.47;8.27;;;17.70;48.20;;;;;;5074790;28;20448;-57
2023/04/04 10:10:50;;;;;;;8.60;8.40;;;17.80;48.20;;;;;;5074454;28;20491;-56
2023/04/04 10:13:24;;;;;;;8.60;8.30;;;17.80;48.10;;;;;;5074352;28;20447;-57
2023/04/04 10:15:53;;;;;;;8.50;8.30;;;17.90;48.10;;;;;;5075034;28;20462;-59
2023/04/04 10:18:24;;;;;;;8.60;8.40;;;17.90;48.10;;;;;;5074639;28;20447;-60
2023/04/04 10:20:51;;;;;;;9.53;9.13;;;18.00;48.10;;;;;;5074630;28;20534;-60
2023/04/04 10:23:19;;;;;;;8.80;8.60;;;18.00;48.00;;;;;;5074345;28;20510;-60
2023/04/04 10:25:48;;;;;;;8.90;8.70;;;18.10;48.00;;;;;;5074467;28;20447;-56
2023/04/04 10:28:15;;;;;;;8.80;8.60;;;18.10;48.00;;;;;;5074478;28;20479;-58
2023/04/04 10:30:48;;;;;;;8.10;7.70;;;18.10;47.90;;;;;;5073288;28;20449;-62
2023/04/04 10:33:23;;;;;;;9.40;9.20;;;18.10;47.90;;;;;;5069593;28;20280;-63
2023/04/04 10:35:53;;;;;;;9.53;9.33;;;18.20;47.90;;;;;;5069982;28;20447;-57
2023/04/04 10:38:24;;;;;;;8.93;8.73;;;18.30;47.90;;;;;;5074154;28;20446;-58
2023/04/04 10:40:53;;;;;;;9.17;8.73;;;18.30;47.90;;;;;;5074306;28;20937;-61
2023/04/04 10:43:25;;;;;;;8.30;8.10;;;18.30;47.90;;;;;;5074267;28;20515;-59
2023/04/04 10:45:52;;;;;;;8.50;8.30;;;18.40;47.90;;;;;;5073692;28;20807;-62
2023/04/04 10:48:22;;;;;;;8.63;8.43;;;18.30;48.10;;;;;;5072741;28;20475;-60
2023/04/04 10:50:49;;;;;;;8.30;8.10;;;18.40;48.00;;;;;;5074164;28;20934;-60
2023/04/04 10:53:16;;;;;;;8.73;8.53;;;18.40;47.90;;;;;;5074125;28;20462;-61
2023/04/04 10:55:45;;;;;;;9.60;9.37;;;18.40;47.80;;;;;;5073806;28;20475;-61
2023/04/04 10:58:12;;;;;;;9.30;9.10;;;18.40;47.80;;;;;;5073851;28;20440;-63
2023/04/04 11:00:51;;;;;;;9.23;9.03;;;18.40;47.70;;;;;;5073773;28;20443;-61
2023/04/04 11:03:18;;;;;;;8.63;8.27;;;18.50;47.70;;;;;;5073229;28;21024;-60
2023/04/04 11:05:47;;;;;;;9.50;9.20;;;18.50;47.70;;;;;;5073572;28;21013;-59
2023/04/04 11:08:18;;;;;;;8.87;8.67;;;18.50;47.60;;;;;;5073618;28;20513;-60
2023/04/04 11:10:47;;;;;;;9.03;8.83;;;18.40;47.60;;;;;;5073735;28;20447;-59
2023/04/04 11:13:17;;;;;;;8.60;8.40;;;18.40;47.60;;;;;;5073793;28;20481;-61
2023/04/04 11:15:58;;;;;;;8.70;8.50;;;18.30;47.60;;;;;;5073484;28;20981;-59
2023/04/04 11:18:46;;;;;;;8.37;8.17;;;18.30;47.60;;;;;;5073482;28;20443;-59
2023/04/04 11:21:17;;;;;;;9.30;9.00;;;18.30;47.70;;;;;;5073583;28;20463;-60
2023/04/04 11:24:15;;;;;;;8.73;8.53;;;18.20;47.60;;;;;;5073461;28;20514;-59
2023/04/04 11:26:44;;;;;;;9.30;9.00;;;18.20;47.60;;;;;;5073386;28;20489;-60
2023/04/04 11:29:21;;;;;;;7.57;7.47;;;18.10;47.60;;;;;;5073420;28;20455;-60
2023/04/04 11:31:49;;;;;;;8.60;8.40;;;18.10;47.60;;;;;;5073855;28;20471;-60
2023/04/04 11:34:30;;;;;;;9.50;9.00;;;18.10;47.70;;;;;;5073405;28;20967;-58
2023/04/04 11:37:00;;;;;;;8.50;8.30;;;18.00;47.60;;;;;;5073167;28;20496;-59
2023/04/04 11:39:29;;;;;;;8.40;8.20;;;18.00;47.60;;;;;;5073241;28;20443;-59
2023/04/04 11:42:02;;;;;;;8.40;8.20;;;18.00;47.70;;;;;;5073154;28;20897;-59
2023/04/04 11:44:30;;;;;;;8.40;8.20;;;18.00;47.70;;;;;;5073048;28;20483;-60
2023/04/04 11:47:02;;;;;;;8.60;8.40;;;18.00;47.80;;;;;;5072974;28;20486;-61
2023/04/04 11:49:31;;;;;;;8.20;8.00;;;18.00;47.70;;;;;;5073014;28;20930;-58
2023/04/04 11:51:59;;;;;;;8.87;8.67;;;17.90;47.60;;;;;;5072844;28;20830;-59
2023/04/04 11:54:28;;;;;;;8.47;8.27;;;17.90;47.70;;;;;;5072985;28;20936;-59
2023/04/04 11:56:54;;;;;;;7.50;7.40;;;17.90;47.70;;;;;;5072827;28;20969;-58
2023/04/04 11:59:22;;;;;;;8.20;8.00;;;17.90;47.80;;;;;;5072408;28;20471;-59
2023/04/04 12:01:49;;;;;;;7.50;7.40;;;17.90;47.70;;;;;;5072748;28;20463;-60
2023/04/04 12:04:21;;;;;;;8.20;8.00;;;17.90;47.70;;;;;;5072592;28;21070;-60
2023/04/04 12:06:51;;;;;;;8.60;8.40;;;17.90;47.70;;;;;;5072510;28;20500;-58
2023/04/04 12:09:20;;;;;;;8.60;8.40;;;18.00;47.80;;;;;;5072595;28;20526;-60
2023/04/04 12:11:47;;;;;;;10.20;9.90;;;17.90;47.70;;;;;;5072382;28;20467;-60
2023/04/04 12:14:18;;;;;;;7.77;7.67;;;17.90;47.70;;;;;;5072554;28;20868;-58
2023/04/04 12:16:47;;;;;;;8.17;7.97;;;17.90;47.70;;;;;;5072262;28;20922;-59
2023/04/04 12:19:14;;;;;;;8.30;8.10;;;17.90;47.70;;;;;;5072337;28;20530;-59
2023/04/04 12:21:41;;;;;;;8.00;7.80;;;17.90;47.60;;;;;;5072233;28;21063;-59
2023/04/04 12:24:08;;;;;;;8.20;8.00;;;17.90;47.60;;;;;;5072203;28;20536;-60
2023/04/04 12:26:38;;;;;;;8.40;8.20;;;17.90;47.60;;;;;;5072146;28;20954;-60
2023/04/04 12:29:06;;;;;;;7.90;7.70;;;17.90;47.60;;;;;;5072226;28;20455;-61
2023/04/04 12:31:33;;;;;;;8.03;7.73;;;17.90;47.60;;;;;;5072018;28;20853;-59
2023/04/04 12:34:01;;;;;;;8.00;7.70;;;17.90;47.60;;;;;;5072145;28;20475;-60
2023/04/04 12:36:30;;;;;;;7.93;7.73;;;17.90;47.70;;;;;;5071963;28;20486;-60
2023/04/04 12:38:59;;;;;;;8.27;8.07;;;17.90;47.60;;;;;;5071987;28;20517;-60
2023/04/04 12:41:27;;;;;;;8.43;8.23;;;17.90;47.70;;;;;;5071973;28;20842;-60
2023/04/04 12:44:04;;;;;;;8.93;8.73;;;17.90;47.60;;;;;;5071891;28;20933;-60
2023/04/04 12:46:38;;;;;;;8.53;8.33;;;17.90;47.70;;;;;;5071927;28;20462;-61
2023/04/04 12:49:07;;;;;;;7.90;7.80;;;17.90;47.60;;;;;;5071886;28;20443;-58
2023/04/04 12:51:35;;;;;;;8.20;8.00;;;17.90;47.60;;;;;;5071782;28;20467;-59